createdAt,value
2019-01-15T00:00:03.131Z,98.9
2019-01-15T00:01:03.588Z,97
2019-01-15T00:02:03.547Z,96.3
2019-01-15T00:03:03.087Z,96.3
2019-01-15T00:04:03.635Z,95.2
2019-01-15T00:05:02.765Z,96.8
2019-01-15T00:06:02.833Z,94.7
2019-01-15T00:07:03.532Z,95.6
2019-01-15T00:08:02.923Z,98.2
2019-01-15T00:09:03.432Z,96.1
2019-01-15T00:10:02.846Z,97.3
2019-01-15T00:11:02.958Z,95.4
2019-01-15T00:12:08.292Z,96.6
2019-01-15T00:13:03.183Z,94.7
2019-01-15T00:14:03.718Z,94.5
2019-01-15T00:15:02.822Z,93.8
2019-01-15T00:16:03.738Z,94.9
2019-01-15T00:17:03.544Z,94
2019-01-15T00:18:02.958Z,93.8
2019-01-15T00:19:03.751Z,94.2
2019-01-15T00:20:03.515Z,92.6
2019-01-15T00:21:03.597Z,94.2
2019-01-15T00:22:03.716Z,90.7
2019-01-15T00:23:02.962Z,93.8
2019-01-15T00:24:03.006Z,91.4
2019-01-15T00:25:03.151Z,93.1
2019-01-15T00:26:03.687Z,90.3
2019-01-15T00:27:03.402Z,91.9
2019-01-15T00:28:03.221Z,90.7
2019-01-15T00:29:02.862Z,89.3
2019-01-15T00:30:03.135Z,89.8
2019-01-15T00:31:02.948Z,89.3
2019-01-15T00:32:02.987Z,89.1
2019-01-15T00:33:03.056Z,89.3
2019-01-15T00:34:03.338Z,88.4
2019-01-15T00:35:02.265Z,90.3
2019-01-15T00:36:02.823Z,90
2019-01-15T00:37:03.224Z,89.8
2019-01-15T00:38:02.700Z,90.5
2019-01-15T00:39:03.451Z,89.8
2019-01-15T00:40:03.549Z,89.6
2019-01-15T00:41:03.002Z,89.3
2019-01-15T00:42:03.091Z,87.5
2019-01-15T00:43:03.359Z,90
2019-01-15T00:44:03.222Z,90
2019-01-15T00:45:03.815Z,89.8
2019-01-15T00:46:03.128Z,90.7
2019-01-15T00:47:03.633Z,91.9
2019-01-15T00:48:03.198Z,89.8
2019-01-15T00:49:03.763Z,90.7
2019-01-15T00:50:02.930Z,90.5
2019-01-15T00:51:03.452Z,88.4
2019-01-15T00:52:03.054Z,91
2019-01-15T00:53:03.246Z,90.3
2019-01-15T00:54:03.128Z,89.6
2019-01-15T00:55:03.325Z,91.2
2019-01-15T00:56:03.757Z,91.4
2019-01-15T00:57:03.555Z,90.5
2019-01-15T00:58:03.101Z,92.6
2019-01-15T00:59:03.011Z,92.4
2019-01-15T01:00:03.431Z,94
2019-01-15T01:01:03.175Z,94.5
2019-01-15T01:02:03.111Z,94.5
2019-01-15T01:03:02.853Z,96.1
2019-01-15T01:04:03.198Z,96.1
2019-01-15T01:05:03.635Z,96.6
2019-01-15T01:06:02.720Z,95.6
2019-01-15T01:07:03.248Z,98
2019-01-15T01:08:03.632Z,96.6
2019-01-15T01:09:03.885Z,95.2
2019-01-15T01:10:03.095Z,96.3
2019-01-15T01:11:03.729Z,94.2
2019-01-15T01:12:03.205Z,96.1
2019-01-15T01:13:03.051Z,96.8
2019-01-15T01:14:03.053Z,97.5
2019-01-15T01:15:03.822Z,97.5
2019-01-15T01:16:03.636Z,98.7
2019-01-15T01:17:02.974Z,97.5
2019-01-15T01:18:02.635Z,96.8
2019-01-15T01:19:03.549Z,96.6
2019-01-15T01:20:02.870Z,96.3
2019-01-15T01:21:03.491Z,96.6
2019-01-15T01:22:03.274Z,94.5
2019-01-15T01:23:04.037Z,96.8
2019-01-15T01:24:03.778Z,95.4
2019-01-15T01:25:03.282Z,96.1
2019-01-15T01:26:02.907Z,95.9
2019-01-15T01:27:03.607Z,98.2
2019-01-15T01:28:03.428Z,96.3
2019-01-15T01:29:03.167Z,99.1
2019-01-15T01:30:02.805Z,97.3
2019-01-15T01:31:03.020Z,99.1
2019-01-15T01:32:03.454Z,98
2019-01-15T01:33:03.146Z,97.3
2019-01-15T01:34:03.670Z,96.1
2019-01-15T01:35:03.364Z,97
2019-01-15T01:36:03.602Z,96.6
2019-01-15T01:37:03.354Z,96.3
2019-01-15T01:38:03.548Z,96.6
2019-01-15T01:39:02.961Z,96.3
2019-01-15T01:40:03.387Z,97.7
2019-01-15T01:41:03.640Z,97.7
2019-01-15T01:42:03.193Z,98
2019-01-15T01:43:03.464Z,98.4
2019-01-15T01:44:02.777Z,99.8
2019-01-15T01:45:03.907Z,97
2019-01-15T01:46:03.606Z,97.7
2019-01-15T01:47:02.793Z,96.6
2019-01-15T01:48:03.442Z,96.1
2019-01-15T01:49:03.329Z,96.6
2019-01-15T01:50:03.600Z,96.8
2019-01-15T01:51:03.220Z,95.2
2019-01-15T01:52:03.199Z,96.1
2019-01-15T01:53:02.954Z,95.9
2019-01-15T01:54:03.377Z,93.5
2019-01-15T01:55:03.269Z,94.5
2019-01-15T01:56:03.711Z,95.2
2019-01-15T01:57:03.138Z,94.5
2019-01-15T01:58:03.544Z,95.6
2019-01-15T01:59:02.807Z,95.2
2019-01-15T02:00:03.318Z,96.8
2019-01-15T02:01:03.698Z,93.5
2019-01-15T02:02:03.518Z,95.9
2019-01-15T02:03:02.774Z,96.3
2019-01-15T02:04:03.857Z,93.8
2019-01-15T02:05:03.163Z,94
2019-01-15T02:06:03.307Z,93.1
2019-01-15T02:07:03.695Z,95.4
2019-01-15T02:08:02.753Z,92.8
2019-01-15T02:09:03.514Z,94.5
2019-01-15T02:10:03.284Z,93.8
2019-01-15T02:11:03.228Z,93.1
2019-01-15T02:12:03.383Z,93.3
2019-01-15T02:13:02.997Z,93.3
2019-01-15T02:14:03.133Z,91.7
2019-01-15T02:15:03.439Z,91.2
2019-01-15T02:16:02.858Z,91.7
2019-01-15T02:17:02.854Z,91.2
2019-01-15T02:18:03.379Z,91.9
2019-01-15T02:19:03.377Z,91.4
2019-01-15T02:20:03.051Z,91.2
2019-01-15T02:21:03.678Z,91.7
2019-01-15T02:22:03.488Z,92.4
2019-01-15T02:23:03.679Z,93.8
2019-01-15T02:24:03.396Z,91.9
2019-01-15T02:25:03.678Z,91.9
2019-01-15T02:26:03.159Z,92.1
2019-01-15T02:27:03.277Z,92.6
2019-01-15T02:28:03.069Z,91.2
2019-01-15T02:29:03.081Z,91.4
2019-01-15T02:30:02.991Z,90.3
2019-01-15T02:31:03.420Z,89.8
2019-01-15T02:32:03.343Z,90.7
2019-01-15T02:33:03.189Z,90.7
2019-01-15T02:34:02.980Z,91
2019-01-15T02:35:03.575Z,90.7
2019-01-15T02:36:03.094Z,92.6
2019-01-15T02:37:03.797Z,90.7
2019-01-15T02:38:03.251Z,90.7
2019-01-15T02:39:03.445Z,89.3
2019-01-15T02:40:03.429Z,88.6
2019-01-15T02:41:03.559Z,87.5
2019-01-15T02:42:03.835Z,87
2019-01-15T02:43:03.808Z,87.5
2019-01-15T02:44:03.319Z,87
2019-01-15T02:45:03.836Z,86.8
2019-01-15T02:46:03.612Z,87.5
2019-01-15T02:47:03.549Z,87.2
2019-01-15T02:48:03.126Z,87.7
2019-01-15T02:49:03.409Z,88.9
2019-01-15T02:50:03.080Z,87
2019-01-15T02:51:03.634Z,88.2
2019-01-15T02:52:03.243Z,88.2
2019-01-15T02:53:02.878Z,88.6
2019-01-15T02:54:03.445Z,89.1
2019-01-15T02:55:03.234Z,87.9
2019-01-15T02:56:03.258Z,88.9
2019-01-15T02:57:03.441Z,87.9
2019-01-15T02:58:02.799Z,87.9
2019-01-15T02:59:03.361Z,87
2019-01-15T03:00:03.863Z,87
2019-01-15T03:01:03.458Z,85.8
2019-01-15T03:02:03.225Z,86.5
2019-01-15T03:03:03.708Z,88.2
2019-01-15T03:04:02.952Z,88.2
2019-01-15T03:05:02.898Z,85.8
2019-01-15T03:06:02.827Z,88.2
2019-01-15T03:07:03.014Z,86.8
2019-01-15T03:08:03.744Z,88.2
2019-01-15T03:09:03.124Z,87.9
2019-01-15T03:10:02.835Z,89.6
2019-01-15T03:11:03.819Z,88.2
2019-01-15T03:12:02.824Z,90.3
2019-01-15T03:13:03.479Z,90
2019-01-15T03:14:03.892Z,90.7
2019-01-15T03:15:03.409Z,91.4
2019-01-15T03:16:03.019Z,90.7
2019-01-15T03:17:03.335Z,91.7
2019-01-15T03:18:03.707Z,91.2
2019-01-15T03:19:02.957Z,91.9
2019-01-15T03:20:03.807Z,91
2019-01-15T03:21:03.034Z,91
2019-01-15T03:22:03.486Z,91.4
2019-01-15T03:23:03.158Z,91.7
2019-01-15T03:24:03.706Z,92.4
2019-01-15T03:25:02.702Z,93.5
2019-01-15T03:26:03.272Z,92.6
2019-01-15T03:27:03.426Z,94.2
2019-01-15T03:28:03.328Z,93.8
2019-01-15T03:29:03.726Z,94.2
2019-01-15T03:30:03.766Z,95.9
2019-01-15T03:31:04.278Z,95.9
2019-01-15T03:32:03.667Z,96.6
2019-01-15T03:33:03.768Z,98
2019-01-15T03:34:02.976Z,96.8
2019-01-15T03:35:03.721Z,97.3
2019-01-15T03:36:03.333Z,97.3
2019-01-15T03:37:02.722Z,98.4
2019-01-15T03:38:03.089Z,97
2019-01-15T03:39:03.064Z,101
2019-01-15T03:40:03.468Z,99.4
2019-01-15T03:41:02.943Z,99.8
2019-01-15T03:42:03.440Z,100.1
2019-01-15T03:43:04.530Z,99.8
2019-01-15T03:44:02.966Z,100.1
2019-01-15T03:45:05.436Z,98.2
2019-01-15T03:46:04.880Z,100.5
2019-01-15T03:47:03.738Z,100.5
2019-01-15T03:48:03.440Z,102.2
2019-01-15T03:49:02.809Z,101.7
2019-01-15T03:50:03.368Z,102.2
2019-01-15T03:51:03.871Z,102.9
2019-01-15T03:52:03.234Z,101.9
2019-01-15T03:53:03.444Z,101.5
2019-01-15T03:54:03.666Z,102.6
2019-01-15T03:55:03.754Z,101.2
2019-01-15T03:56:02.998Z,102.6
2019-01-15T03:57:03.741Z,102.4
2019-01-15T03:58:02.855Z,99.8
2019-01-15T03:59:03.349Z,100.3
2019-01-15T04:00:03.071Z,98.2
2019-01-15T04:01:03.306Z,98.9
2019-01-15T04:02:03.106Z,100.8
2019-01-15T04:03:02.707Z,99.6
2019-01-15T04:04:03.061Z,101.7
2019-01-15T04:05:02.944Z,101.5
2019-01-15T04:06:03.332Z,100.1
2019-01-15T04:07:03.359Z,102.6
2019-01-15T04:08:03.652Z,103.1
2019-01-15T04:09:03.029Z,102.4
2019-01-15T04:10:03.286Z,102.4
2019-01-15T04:11:03.552Z,100.8
2019-01-15T04:12:03.750Z,101
2019-01-15T04:13:11.790Z,101.9
2019-01-15T04:14:03.063Z,100.8
2019-01-15T04:15:02.918Z,100.5
2019-01-15T04:16:03.279Z,100.1
2019-01-15T04:17:03.565Z,100.5
2019-01-15T04:18:03.150Z,100.1
2019-01-15T04:19:03.492Z,101.2
2019-01-15T04:20:03.857Z,100.8
2019-01-15T04:21:03.040Z,99.8
2019-01-15T04:22:02.995Z,99.1
2019-01-15T04:23:03.145Z,98.7
2019-01-15T04:24:03.089Z,98.2
2019-01-15T04:25:04.013Z,98.2
2019-01-15T04:26:02.763Z,97
2019-01-15T04:27:02.801Z,96.1
2019-01-15T04:28:03.622Z,98
2019-01-15T04:29:03.466Z,95.4
2019-01-15T04:30:02.825Z,96.3
2019-01-15T04:31:02.894Z,96.8
2019-01-15T04:32:03.314Z,95.6
2019-01-15T04:33:03.230Z,96.3
2019-01-15T04:34:03.148Z,97.3
2019-01-15T04:35:03.467Z,95.9
2019-01-15T04:36:03.192Z,96.1
2019-01-15T04:37:03.288Z,96.1
2019-01-15T04:38:03.630Z,94.7
2019-01-15T04:39:03.268Z,96.6
2019-01-15T04:40:03.426Z,96.3
2019-01-15T04:41:02.974Z,95.9
2019-01-15T04:42:03.575Z,98
2019-01-15T04:43:02.761Z,97.3
2019-01-15T04:44:03.534Z,97.7
2019-01-15T04:45:03.298Z,94.9
2019-01-15T04:46:03.455Z,96.3
2019-01-15T04:47:03.811Z,94.5
2019-01-15T04:48:03.593Z,95.2
2019-01-15T04:49:03.068Z,94.2
2019-01-15T04:50:03.741Z,95.4
2019-01-15T04:51:03.599Z,93.8
2019-01-15T04:52:02.998Z,93.1
2019-01-15T04:53:02.816Z,93.8
2019-01-15T04:54:03.373Z,91.9
2019-01-15T04:55:02.927Z,94.2
2019-01-15T04:56:03.530Z,94
2019-01-15T04:57:02.951Z,95.6
2019-01-15T04:58:03.516Z,94.9
2019-01-15T04:59:03.351Z,96.6
2019-01-15T05:00:02.703Z,96.3
2019-01-15T05:01:02.864Z,96.1
2019-01-15T05:02:03.779Z,97.5
2019-01-15T05:03:03.642Z,95.4
2019-01-15T05:04:03.125Z,94.7
2019-01-15T05:05:03.480Z,95.4
2019-01-15T05:06:03.181Z,92.6
2019-01-15T05:07:02.977Z,94.2
2019-01-15T05:08:03.074Z,92.8
2019-01-15T05:09:03.048Z,91.9
2019-01-15T05:10:03.189Z,92.8
2019-01-15T05:11:03.291Z,93.5
2019-01-15T05:12:03.603Z,92.8
2019-01-15T05:13:03.552Z,95.2
2019-01-15T05:14:03.144Z,93.8
2019-01-15T05:15:03.788Z,95.2
2019-01-15T05:16:03.413Z,93.8
2019-01-15T05:17:03.200Z,94.7
2019-01-15T05:18:03.124Z,94.5
2019-01-15T05:19:03.493Z,94.2
2019-01-15T05:20:03.020Z,95.4
2019-01-15T05:21:03.649Z,93.8
2019-01-15T05:22:03.001Z,94.9
2019-01-15T05:23:02.658Z,94
2019-01-15T05:24:03.658Z,95.2
2019-01-15T05:25:03.713Z,95.2
2019-01-15T05:26:03.335Z,95.4
2019-01-15T05:27:03.271Z,95.6
2019-01-15T05:28:03.170Z,96.1
2019-01-15T05:29:03.525Z,94
2019-01-15T05:30:03.053Z,93.1
2019-01-15T05:31:02.753Z,94.5
2019-01-15T05:32:02.936Z,93.5
2019-01-15T05:33:03.589Z,94
2019-01-15T05:34:03.571Z,94.9
2019-01-15T05:35:03.286Z,94.5
2019-01-15T05:36:03.632Z,94.2
2019-01-15T05:37:02.789Z,95.9
2019-01-15T05:38:03.251Z,94.7
2019-01-15T05:39:02.947Z,93.8
2019-01-15T05:40:03.784Z,93.8
2019-01-15T05:41:03.255Z,94.7
2019-01-15T05:42:03.111Z,93.5
2019-01-15T05:43:03.524Z,95.9
2019-01-15T05:44:03.620Z,94.5
2019-01-15T05:45:03.442Z,95.2
2019-01-15T05:46:03.455Z,95.6
2019-01-15T05:47:03.250Z,95.2
2019-01-15T05:48:03.043Z,94
2019-01-15T05:49:03.494Z,94.5
2019-01-15T05:50:02.943Z,94.9
2019-01-15T05:51:03.195Z,95.2
2019-01-15T05:52:03.084Z,96.1
2019-01-15T05:53:02.811Z,95.6
2019-01-15T05:54:03.192Z,96.6
2019-01-15T05:55:03.799Z,95.6
2019-01-15T05:56:03.583Z,95.4
2019-01-15T05:57:03.356Z,95.4
2019-01-15T05:58:02.924Z,95.9
2019-01-15T05:59:02.869Z,94
2019-01-15T06:00:03.436Z,94.7
2019-01-15T06:01:03.581Z,94.5
2019-01-15T06:02:03.094Z,95.4
2019-01-15T06:03:03.455Z,97.5
2019-01-15T06:04:03.412Z,94
2019-01-15T06:05:03.611Z,96.8
2019-01-15T06:06:03.098Z,95.6
2019-01-15T06:07:02.996Z,96.3
2019-01-15T06:08:03.439Z,96.8
2019-01-15T06:09:03.067Z,94
2019-01-15T06:10:03.233Z,95.9
2019-01-15T06:11:03.349Z,95.2
2019-01-15T06:12:03.650Z,93.5
2019-01-15T06:13:03.545Z,93.1
2019-01-15T06:14:02.943Z,93.1
2019-01-15T06:15:03.772Z,93.8
2019-01-15T06:16:02.860Z,92.1
2019-01-15T06:17:03.162Z,93.1
2019-01-15T06:18:03.078Z,91.4
2019-01-15T06:19:03.046Z,92.4
2019-01-15T06:20:03.362Z,93.3
2019-01-15T06:21:02.889Z,92.1
2019-01-15T06:22:03.507Z,93.8
2019-01-15T06:23:03.142Z,94.5
2019-01-15T06:24:03.660Z,94.5
2019-01-15T06:25:03.362Z,95.4
2019-01-15T06:26:03.277Z,94.7
2019-01-15T06:27:03.133Z,95.4
2019-01-15T06:28:02.929Z,94.7
2019-01-15T06:29:03.206Z,94
2019-01-15T06:30:03.678Z,93.8
2019-01-15T06:31:03.453Z,93.8
2019-01-15T06:32:03.298Z,95.2
2019-01-15T06:33:02.947Z,94
2019-01-15T06:34:02.756Z,92.8
2019-01-15T06:35:03.226Z,92.4
2019-01-15T06:36:03.110Z,90.5
2019-01-15T06:37:03.603Z,92.4
2019-01-15T06:38:03.238Z,91
2019-01-15T06:39:03.554Z,90.7
2019-01-15T06:40:03.818Z,90.5
2019-01-15T06:41:03.169Z,89.8
2019-01-15T06:42:03.203Z,87.7
2019-01-15T06:43:04.096Z,89.6
2019-01-15T06:44:02.972Z,86.8
2019-01-15T06:45:03.529Z,87.7
2019-01-15T06:46:03.005Z,87.2
2019-01-15T06:47:02.757Z,88.2
2019-01-15T06:48:03.007Z,88.2
2019-01-15T06:49:03.075Z,87.5
2019-01-15T06:50:03.471Z,87.9
2019-01-15T06:51:03.003Z,88.4
2019-01-15T06:52:03.106Z,87.2
2019-01-15T06:53:02.907Z,86.8
2019-01-15T06:54:02.943Z,85.8
2019-01-15T06:55:03.135Z,84.7
2019-01-15T06:56:03.364Z,86.1
2019-01-15T06:57:03.325Z,84.7
2019-01-15T06:58:03.422Z,85.8
2019-01-15T06:59:03.483Z,84
2019-01-15T07:00:03.088Z,84.7
2019-01-15T07:01:03.933Z,83.7
2019-01-15T07:02:02.902Z,84.7
2019-01-15T07:03:03.262Z,84.2
2019-01-15T07:04:03.277Z,83.3
2019-01-15T07:05:03.891Z,84.7
2019-01-15T07:06:03.670Z,83.3
2019-01-15T07:07:02.986Z,86.1
2019-01-15T07:08:03.796Z,84.7
2019-01-15T07:09:03.158Z,84.2
2019-01-15T07:10:03.032Z,86.1
2019-01-15T07:11:02.917Z,85.8
2019-01-15T07:12:03.618Z,86.1
2019-01-15T07:13:03.371Z,86.3
2019-01-15T07:14:02.889Z,86.3
2019-01-15T07:15:03.378Z,86.1
2019-01-15T07:16:02.941Z,85.8
2019-01-15T07:17:02.940Z,86.1
2019-01-15T07:18:02.762Z,86.1
2019-01-15T07:19:03.324Z,87.7
2019-01-15T07:20:03.671Z,86.3
2019-01-15T07:21:03.223Z,85.8
2019-01-15T07:22:03.448Z,87
2019-01-15T07:23:03.430Z,86.8
2019-01-15T07:24:02.937Z,86.3
2019-01-15T07:25:03.655Z,86.3
2019-01-15T07:26:03.371Z,87.2
2019-01-15T07:27:02.996Z,86.1
2019-01-15T07:28:02.966Z,87.9
2019-01-15T07:29:03.702Z,87.5
2019-01-15T07:30:03.640Z,86.8
2019-01-15T07:31:03.400Z,85.6
2019-01-15T07:32:02.957Z,86.1
2019-01-15T07:33:02.910Z,86.3
2019-01-15T07:34:03.007Z,85.6
2019-01-15T07:35:02.930Z,87.2
2019-01-15T07:36:03.079Z,86.5
2019-01-15T07:37:03.244Z,89.6
2019-01-15T07:38:03.303Z,86.8
2019-01-15T07:39:03.461Z,90.7
2019-01-15T07:40:03.682Z,91
2019-01-15T07:41:03.111Z,91
2019-01-15T07:42:03.202Z,91.7
2019-01-15T07:43:03.273Z,94.7
2019-01-15T07:44:04.770Z,91.9
2019-01-15T07:45:03.520Z,94
2019-01-15T07:46:03.256Z,93.1
2019-01-15T07:47:03.076Z,94
2019-01-15T07:48:03.725Z,94.5
2019-01-15T07:49:03.052Z,94.7
2019-01-15T07:50:03.864Z,93.5
2019-01-15T07:51:03.611Z,93.5
2019-01-15T07:52:03.623Z,93.3
2019-01-15T07:53:03.613Z,93.3
2019-01-15T07:54:03.100Z,92.8
2019-01-15T07:55:02.806Z,93.1
2019-01-15T07:56:02.802Z,93.8
2019-01-15T07:57:03.692Z,93.3
2019-01-15T07:58:03.437Z,93.5
2019-01-15T07:59:02.735Z,94.5
2019-01-15T08:00:03.220Z,94.5
2019-01-15T08:01:03.054Z,94.5
2019-01-15T08:02:03.222Z,93.8
2019-01-15T08:03:02.964Z,93.1
2019-01-15T08:04:03.635Z,92.6
2019-01-15T08:05:03.611Z,92.1
2019-01-15T08:06:03.259Z,91
2019-01-15T08:07:03.147Z,91.7
2019-01-15T08:08:02.702Z,90
2019-01-15T08:09:03.312Z,92.1
2019-01-15T08:10:02.830Z,89.8
2019-01-15T08:11:02.991Z,91
2019-01-15T08:12:03.380Z,90
2019-01-15T08:13:02.980Z,90.3
2019-01-15T08:14:03.210Z,90.5
2019-01-15T08:15:03.219Z,91.7
2019-01-15T08:16:03.267Z,88.9
2019-01-15T08:17:02.909Z,92.1
2019-01-15T08:18:03.765Z,91.9
2019-01-15T08:19:03.462Z,91.4
2019-01-15T08:20:03.307Z,91.7
2019-01-15T08:21:03.093Z,91.4
2019-01-15T08:22:02.303Z,92.1
2019-01-15T08:23:02.859Z,90.7
2019-01-15T08:24:02.726Z,91.4
2019-01-15T08:25:03.713Z,90
2019-01-15T08:26:03.666Z,90.3
2019-01-15T08:27:03.394Z,89.6
2019-01-15T08:28:02.996Z,91.4
2019-01-15T08:29:02.989Z,90.7
2019-01-15T08:30:02.987Z,92.4
2019-01-15T08:31:03.244Z,91
2019-01-15T08:32:03.302Z,92.4
2019-01-15T08:33:02.910Z,92.8
2019-01-15T08:34:03.566Z,91.9
2019-01-15T08:35:03.132Z,90.3
2019-01-15T08:36:02.854Z,91.7
2019-01-15T08:37:03.639Z,90
2019-01-15T08:38:03.092Z,89.1
2019-01-15T08:39:03.024Z,89.6
2019-01-15T08:40:03.348Z,88.9
2019-01-15T08:41:02.947Z,88.2
2019-01-15T08:42:03.488Z,89.1
2019-01-15T08:43:02.667Z,88.4
2019-01-15T08:44:02.882Z,87.9
2019-01-15T08:45:03.573Z,88.4
2019-01-15T08:46:02.923Z,88.2
2019-01-15T08:47:03.636Z,86.5
2019-01-15T08:48:03.126Z,86.8
2019-01-15T08:49:02.878Z,85.8
2019-01-15T08:50:03.782Z,85.8
2019-01-15T08:51:02.988Z,85.8
2019-01-15T08:52:03.051Z,87.5
2019-01-15T08:53:03.817Z,87.2
2019-01-15T08:54:03.164Z,87.9
2019-01-15T08:55:03.903Z,87.9
2019-01-15T08:56:02.824Z,90
2019-01-15T08:57:02.821Z,87.9
2019-01-15T08:58:02.783Z,88.4
2019-01-15T08:59:03.163Z,88.6
2019-01-15T09:00:03.593Z,88.2
2019-01-15T09:01:03.554Z,88.9
2019-01-15T09:02:03.443Z,88.2
2019-01-15T09:03:02.997Z,89.3
2019-01-15T09:04:02.943Z,89.1
2019-01-15T09:05:02.869Z,88.9
2019-01-15T09:06:03.542Z,88.4
2019-01-15T09:07:03.437Z,89.8
2019-01-15T09:08:03.225Z,87.5
2019-01-15T09:09:03.102Z,88.6
2019-01-15T09:10:03.531Z,87.2
2019-01-15T09:11:03.671Z,89.8
2019-01-15T09:12:03.359Z,88.4
2019-01-15T09:13:03.095Z,89.6
2019-01-15T09:14:03.050Z,89.8
2019-01-15T09:15:02.965Z,88.4
2019-01-15T09:16:02.889Z,88.4
2019-01-15T09:17:11.398Z,88.6
2019-01-15T09:18:03.748Z,88.9
2019-01-15T09:19:02.706Z,87.5
2019-01-15T09:20:02.779Z,88.2
2019-01-15T09:21:02.997Z,87.9
2019-01-15T09:22:03.771Z,88.2
2019-01-15T09:23:03.407Z,88.2
2019-01-15T09:24:02.764Z,89.1
2019-01-15T09:25:03.135Z,88.9
2019-01-15T09:26:03.085Z,89.3
2019-01-15T09:27:03.099Z,88.6
2019-01-15T09:28:03.856Z,89.6
2019-01-15T09:29:03.678Z,88.6
2019-01-15T09:30:03.454Z,89.3
2019-01-15T09:31:02.977Z,89.3
2019-01-15T09:32:03.778Z,90.3
2019-01-15T09:33:03.556Z,91
2019-01-15T09:34:03.418Z,91.4
2019-01-15T09:35:03.783Z,91
2019-01-15T09:36:03.530Z,92.1
2019-01-15T09:37:02.858Z,91.4
2019-01-15T09:38:03.032Z,93.8
2019-01-15T09:40:05.916Z,91.9
2019-01-15T09:41:50.117Z,93.1
2019-01-15T09:42:02.270Z,93.8
2019-01-15T09:42:03.160Z,94.2
2019-01-15T09:43:03.081Z,94
2019-01-15T09:44:03.773Z,95.6
2019-01-15T09:45:03.297Z,94.9
2019-01-15T09:46:04.098Z,97.5
2019-01-15T09:47:03.590Z,97.5
2019-01-15T09:48:03.817Z,98
2019-01-15T09:49:03.745Z,98.4
2019-01-15T09:50:03.169Z,98
2019-01-15T09:51:03.841Z,97.7
2019-01-15T09:52:03.166Z,97.3
2019-01-15T09:53:03.278Z,97.5
2019-01-15T09:54:03.033Z,95.9
2019-01-15T09:55:02.855Z,96.6
2019-01-15T09:56:02.857Z,97.3
2019-01-15T09:57:03.640Z,98
2019-01-15T09:58:03.264Z,94.7
2019-01-15T09:59:03.529Z,98.4
2019-01-15T10:00:03.604Z,96.6
2019-01-15T10:01:03.257Z,98.2
2019-01-15T10:02:03.511Z,96.1
2019-01-15T10:03:03.101Z,96.6
2019-01-15T10:04:03.393Z,97
2019-01-15T10:05:03.579Z,95.2
2019-01-15T10:06:03.170Z,96.1
2019-01-15T10:07:03.111Z,97.7
2019-01-15T10:08:03.495Z,96.1
2019-01-15T10:09:02.958Z,96.8
2019-01-15T10:10:03.783Z,96.1
2019-01-15T10:11:02.697Z,97.3
2019-01-15T10:12:03.512Z,94.7
2019-01-15T10:13:03.598Z,95.4
2019-01-15T10:14:02.758Z,96.6
2019-01-15T10:15:03.320Z,95.2
2019-01-15T10:16:03.001Z,96.1
2019-01-15T10:17:03.226Z,95.9
2019-01-15T10:18:03.225Z,95.6
2019-01-15T10:19:03.046Z,94.9
2019-01-15T10:20:02.996Z,97.3
2019-01-15T10:21:03.489Z,95.4
2019-01-15T10:22:02.710Z,95.2
2019-01-15T10:23:02.758Z,96.1
2019-01-15T10:24:03.659Z,94
2019-01-15T10:25:03.430Z,95.9
2019-01-15T10:26:03.757Z,94.9
2019-01-15T10:27:03.179Z,95.4
2019-01-15T10:28:03.752Z,96.3
2019-01-15T10:29:02.999Z,96.6
2019-01-15T10:30:04.141Z,96.6
2019-01-15T10:31:03.061Z,95.6
2019-01-15T10:32:02.858Z,94.2
2019-01-15T10:33:03.097Z,94
2019-01-15T10:34:03.391Z,93.3
2019-01-15T10:35:03.344Z,94.9
2019-01-15T10:36:02.836Z,94.2
2019-01-15T10:37:02.842Z,94
2019-01-15T10:38:02.726Z,94.5
2019-01-15T10:39:03.523Z,93.5
2019-01-15T10:40:03.671Z,92.4
2019-01-15T10:41:03.016Z,91.2
2019-01-15T10:42:02.643Z,91.4
2019-01-15T10:43:02.747Z,91
2019-01-15T10:44:03.669Z,91.4
2019-01-15T10:45:03.656Z,88.9
2019-01-15T10:46:02.736Z,90.7
2019-01-15T10:47:02.939Z,90.3
2019-01-15T10:48:03.891Z,89.6
2019-01-15T10:49:02.823Z,90.7
2019-01-15T10:50:03.466Z,91
2019-01-15T10:51:02.800Z,90.7
2019-01-15T10:52:03.758Z,91.2
2019-01-15T10:53:03.517Z,91.4
2019-01-15T10:54:03.321Z,91
2019-01-15T10:55:02.908Z,91
2019-01-15T10:56:03.290Z,91.4
2019-01-15T10:57:03.299Z,92.1
2019-01-15T10:58:03.530Z,89.1
2019-01-15T10:59:03.413Z,90.5
2019-01-15T11:00:03.665Z,90.5
2019-01-15T11:01:03.606Z,90
2019-01-15T11:02:03.608Z,90
2019-01-15T11:03:02.835Z,90.7
2019-01-15T11:04:02.947Z,90.3
2019-01-15T11:05:02.900Z,90.5
2019-01-15T11:06:03.237Z,90
2019-01-15T11:07:03.500Z,90.3
2019-01-15T11:08:03.533Z,92.8
2019-01-15T11:09:02.904Z,93.1
2019-01-15T11:10:03.108Z,91.9
2019-01-15T11:11:03.518Z,95.4
2019-01-15T11:12:03.697Z,94
2019-01-15T11:13:03.518Z,95.4
2019-01-15T11:14:03.131Z,97.5
2019-01-15T11:15:03.228Z,95.6
2019-01-15T11:16:03.222Z,98.2
2019-01-15T11:17:03.650Z,96.3
2019-01-15T11:18:02.887Z,98
2019-01-15T11:19:03.576Z,96.1
2019-01-15T11:20:02.857Z,97.5
2019-01-15T11:21:03.570Z,96.3
2019-01-15T11:22:03.698Z,95.6
2019-01-15T11:23:03.596Z,96.8
2019-01-15T11:24:03.176Z,95.6
2019-01-15T11:25:03.601Z,98
2019-01-15T11:26:03.162Z,95.6
2019-01-15T11:27:03.609Z,97.5
2019-01-15T11:28:02.988Z,95.9
2019-01-15T11:29:02.824Z,96.1
2019-01-15T11:30:03.063Z,97.3
2019-01-15T11:31:03.175Z,94.9
2019-01-15T11:32:03.367Z,96.8
2019-01-15T11:33:02.833Z,94.9
2019-01-15T11:34:02.713Z,96.1
2019-01-15T11:35:03.224Z,94.2
2019-01-15T11:36:03.179Z,93.3
2019-01-15T11:37:03.107Z,93.5
2019-01-15T11:38:03.432Z,93.1
2019-01-15T11:39:02.966Z,93.1
2019-01-15T11:40:03.297Z,92.1
2019-01-15T11:41:03.173Z,92.6
2019-01-15T11:42:03.268Z,93.3
2019-01-15T11:43:03.020Z,93.5
2019-01-15T11:44:02.985Z,92.6
2019-01-15T11:45:04.117Z,91.7
2019-01-15T11:46:02.838Z,92.4
2019-01-15T11:47:03.486Z,91.4
2019-01-15T11:48:02.786Z,91.9
2019-01-15T11:49:03.835Z,89.8
2019-01-15T11:50:03.555Z,90.7
2019-01-15T11:51:03.138Z,91.7
2019-01-15T11:52:02.867Z,89.3
2019-01-15T11:53:03.244Z,91
2019-01-15T11:54:03.119Z,90.3
2019-01-15T11:55:03.354Z,91.4
2019-01-15T11:56:03.502Z,90
2019-01-15T11:57:03.137Z,91.7
2019-01-15T11:58:03.120Z,89.3
2019-01-15T11:59:03.298Z,90
2019-01-15T12:00:03.429Z,90.7
2019-01-15T12:01:03.614Z,90
2019-01-15T12:02:03.555Z,92.1
2019-01-15T12:03:04.126Z,90.3
2019-01-15T12:04:02.951Z,91.2
2019-01-15T12:05:03.098Z,91.4
2019-01-15T12:06:03.632Z,91.9
2019-01-15T12:07:03.412Z,91.2
2019-01-15T12:08:03.701Z,92.8
2019-01-15T12:09:03.583Z,90.3
2019-01-15T12:10:03.327Z,91.2
2019-01-15T12:11:03.136Z,90
2019-01-15T12:12:03.169Z,89.3
2019-01-15T12:13:03.286Z,89.3
2019-01-15T12:14:02.639Z,88.4
2019-01-15T12:15:11.313Z,87.5
2019-01-15T12:16:03.051Z,86.1
2019-01-15T12:17:03.515Z,87
2019-01-15T12:18:03.321Z,88.2
2019-01-15T12:19:02.971Z,87.9
2019-01-15T12:20:02.829Z,88.6
2019-01-15T12:21:03.461Z,87.7
2019-01-15T12:22:02.942Z,88.6
2019-01-15T12:23:03.139Z,87.9
2019-01-15T12:24:03.132Z,86.8
2019-01-15T12:25:03.207Z,88.6
2019-01-15T12:26:03.013Z,86.8
2019-01-15T12:27:03.097Z,86.8
2019-01-15T12:28:03.287Z,87.2
2019-01-15T12:29:03.047Z,87.7
2019-01-15T12:30:03.793Z,88.2
2019-01-15T12:31:03.028Z,87.9
2019-01-15T12:32:03.379Z,88.6
2019-01-15T12:33:03.625Z,88.2
2019-01-15T12:34:02.996Z,90.7
2019-01-15T12:35:03.417Z,89.8
2019-01-15T12:36:03.452Z,92.1
2019-01-15T12:37:03.307Z,91.2
2019-01-15T12:38:03.169Z,92.4
2019-01-15T12:39:03.520Z,93.1
2019-01-15T12:40:03.004Z,91.9
2019-01-15T12:41:02.969Z,94.2
2019-01-15T12:42:03.761Z,92.4
2019-01-15T12:43:03.515Z,92.6
2019-01-15T12:44:03.012Z,91
2019-01-15T12:45:03.821Z,91.2
2019-01-15T12:46:02.884Z,90.7
2019-01-15T12:47:03.779Z,93.1
2019-01-15T12:48:03.215Z,91.7
2019-01-15T12:49:03.029Z,91.2
2019-01-15T12:50:03.422Z,91.9
2019-01-15T12:51:03.660Z,93.1
2019-01-15T12:52:02.795Z,91.4
2019-01-15T12:53:03.330Z,94.5
2019-01-15T12:54:03.175Z,91.9
2019-01-15T12:55:02.907Z,92.8
2019-01-15T12:56:03.281Z,91.4
2019-01-15T12:57:02.940Z,91.4
2019-01-15T12:58:03.489Z,92.8
2019-01-15T12:59:03.089Z,91
2019-01-15T13:00:03.394Z,92.4
2019-01-15T13:01:03.479Z,92.4
2019-01-15T13:02:03.312Z,93.3
2019-01-15T13:03:03.500Z,93.1
2019-01-15T13:04:03.008Z,94
2019-01-15T13:05:02.837Z,93.8
2019-01-15T13:06:02.759Z,93.5
2019-01-15T13:07:02.990Z,91.7
2019-01-15T13:08:03.160Z,92.4
2019-01-15T13:09:03.647Z,90.7
2019-01-15T13:10:03.143Z,92.1
2019-01-15T13:11:03.189Z,89.6
2019-01-15T13:12:03.153Z,91.4
2019-01-15T13:13:03.454Z,90
2019-01-15T13:14:03.300Z,91.9
2019-01-15T13:15:03.201Z,91
2019-01-15T13:16:03.378Z,89.6
2019-01-15T13:17:03.087Z,89.8
2019-01-15T13:18:03.626Z,90.7
2019-01-15T13:19:03.483Z,89.8
2019-01-15T13:20:03.661Z,88.2
2019-01-15T13:21:02.904Z,88.9
2019-01-15T13:22:03.756Z,89.6
2019-01-15T13:23:03.358Z,88.4